Time;durP1;ratioP1;P1;durP2;ratioP2;P2;SDS_P1;SDS_P2;PMS_P1;PMS_P2;Temp;Humidity;BMP_temperature;BMP_pressure;BME280_temperature;BME280_humidity;BME280_pressure;Samples;Min_cycle;Max_cycle;Signal;HPM_P1;HPM_P2
2023/09/23 04:02:23;;;;;;;2.60;0.90;;;12.60;83.90;;;;;;6290828;22;20443;-72
2023/09/23 04:04:53;;;;;;;2.47;0.70;;;12.50;84.20;;;;;;6308424;22;20403;-73
2023/09/23 04:07:20;;;;;;;1.40;0.60;;;12.50;84.50;;;;;;6308416;22;20411;-72
2023/09/23 04:09:48;;;;;;;1.67;0.80;;;12.60;84.40;;;;;;6308314;22;20445;-73
2023/09/23 04:12:17;;;;;;;1.60;0.70;;;12.60;84.20;;;;;;6283782;22;20417;-72
2023/09/23 04:14:44;;;;;;;4.07;0.73;;;12.60;84.20;;;;;;6278105;22;20405;-72
2023/09/23 04:17:11;;;;;;;1.87;0.97;;;12.60;84.20;;;;;;6277393;22;20401;-73
2023/09/23 04:19:39;;;;;;;1.83;0.73;;;12.60;83.90;;;;;;6277343;22;20428;-72
2023/09/23 04:22:05;;;;;;;2.30;0.77;;;12.60;84.10;;;;;;6277257;22;20417;-72
2023/09/23 04:24:32;;;;;;;1.90;1.00;;;12.60;84.10;;;;;;6277265;22;20432;-72
2023/09/23 04:26:59;;;;;;;1.70;0.80;;;12.50;84.00;;;;;;6277237;22;20405;-72
2023/09/23 04:29:28;;;;;;;2.00;0.80;;;12.40;84.40;;;;;;6277141;22;20469;-72
2023/09/23 04:31:56;;;;;;;2.17;0.83;;;12.40;84.60;;;;;;6277806;22;20444;-72
2023/09/23 04:34:24;;;;;;;1.73;0.70;;;12.40;84.70;;;;;;6277169;22;20741;-72
2023/09/23 04:36:52;;;;;;;1.80;1.10;;;12.40;84.40;;;;;;6277154;22;20459;-72
2023/09/23 04:39:19;;;;;;;1.50;0.80;;;12.30;84.80;;;;;;6277131;22;20400;-73
2023/09/23 04:41:46;;;;;;;1.73;0.77;;;12.30;85.10;;;;;;6277321;22;20421;-72
2023/09/23 04:44:12;;;;;;;2.10;0.70;;;12.30;85.00;;;;;;6277054;22;20409;-72
2023/09/23 04:46:39;;;;;;;1.63;0.70;;;12.30;84.80;;;;;;6277010;22;20408;-72
2023/09/23 04:49:06;;;;;;;1.90;0.73;;;12.30;85.00;;;;;;6276955;22;20404;-72
2023/09/23 04:51:32;;;;;;;1.90;0.80;;;12.20;85.10;;;;;;6276909;22;20439;-72
2023/09/23 04:54:01;;;;;;;3.90;0.97;;;12.10;85.30;;;;;;6276997;22;20405;-72
2023/09/23 04:56:27;;;;;;;1.60;0.80;;;12.00;85.50;;;;;;6277285;22;20405;-73
2023/09/23 04:58:58;;;;;;;2.43;0.87;;;12.10;85.70;;;;;;6276978;22;20402;-72
2023/09/23 05:01:25;;;;;;;2.00;0.80;;;12.20;85.70;;;;;;6276633;22;20433;-73
2023/09/23 05:03:52;;;;;;;1.73;0.70;;;12.20;85.30;;;;;;6276885;22;20401;-73
2023/09/23 05:06:18;;;;;;;1.60;0.80;;;12.30;85.00;;;;;;6276136;22;20774;-72
2023/09/23 05:08:45;;;;;;;1.60;0.87;;;12.10;85.20;;;;;;6276892;22;20402;-72
2023/09/23 05:11:13;;;;;;;1.53;0.73;;;12.00;85.60;;;;;;6276680;22;20477;-73
2023/09/23 05:13:41;;;;;;;2.00;0.80;;;11.90;86.20;;;;;;6276424;22;20413;-72
2023/09/23 05:16:07;;;;;;;1.90;0.90;;;11.90;86.00;;;;;;6276806;22;20421;-73
2023/09/23 05:18:34;;;;;;;1.60;0.80;;;11.80;86.50;;;;;;6276783;22;20401;-72
2023/09/23 05:21:01;;;;;;;1.70;0.90;;;12.00;86.50;;;;;;6276668;22;20418;-72
2023/09/23 05:23:28;;;;;;;1.80;0.90;;;12.00;85.80;;;;;;6276764;22;20409;-72
2023/09/23 05:25:57;;;;;;;1.70;0.80;;;12.10;86.10;;;;;;6276714;22;20821;-72
2023/09/23 05:28:27;;;;;;;1.60;0.70;;;12.00;85.60;;;;;;6276665;22;20492;-72
2023/09/23 05:30:54;;;;;;;2.70;1.20;;;12.00;85.80;;;;;;6276547;22;20446;-72
2023/09/23 05:33:21;;;;;;;2.43;1.00;;;12.00;86.20;;;;;;6276230;22;20735;-73
2023/09/23 05:35:47;;;;;;;1.60;0.70;;;12.10;85.90;;;;;;6276672;22;20415;-72
2023/09/23 05:38:14;;;;;;;2.80;1.20;;;12.10;85.60;;;;;;6276706;22;20405;-73
2023/09/23 05:40:41;;;;;;;1.90;0.90;;;12.00;85.50;;;;;;6276541;22;20393;-73
2023/09/23 05:43:07;;;;;;;3.10;0.80;;;12.00;86.50;;;;;;6276612;22;20409;-72
2023/09/23 05:45:37;;;;;;;1.70;1.00;;;12.20;85.90;;;;;;6276553;22;20401;-72
2023/09/23 05:48:04;;;;;;;2.30;0.80;;;12.30;85.10;;;;;;6276211;22;20892;-72
2023/09/23 05:50:31;;;;;;;1.90;0.70;;;12.50;85.40;;;;;;6275978;22;20440;-73
2023/09/23 05:52:58;;;;;;;1.80;0.80;;;12.60;84.90;;;;;;6276614;22;20405;-73
2023/09/23 05:55:25;;;;;;;1.70;0.80;;;12.80;84.50;;;;;;6276545;22;20397;-73
2023/09/23 05:57:51;;;;;;;1.70;0.90;;;12.70;83.60;;;;;;6276157;22;20903;-73
2023/09/23 06:00:18;;;;;;;1.93;0.80;;;12.70;83.90;;;;;;6276148;22;20886;-72
2023/09/23 06:02:47;;;;;;;2.57;0.90;;;12.70;83.90;;;;;;6275982;22;20999;-72
2023/09/23 06:05:14;;;;;;;1.60;0.77;;;12.50;84.10;;;;;;6276505;22;20433;-72
2023/09/23 06:07:42;;;;;;;2.93;0.90;;;12.30;85.10;;;;;;6276464;22;20404;-73
2023/09/23 06:10:10;;;;;;;1.70;0.90;;;12.30;85.80;;;;;;6276423;22;20490;-73
2023/09/23 06:12:37;;;;;;;1.90;0.90;;;12.30;85.70;;;;;;6276342;22;20817;-73
2023/09/23 06:15:05;;;;;;;1.60;0.70;;;12.40;86.00;;;;;;6276472;22;20405;-72
2023/09/23 06:17:32;;;;;;;1.50;0.70;;;12.40;85.50;;;;;;6277451;22;20397;-73
2023/09/23 06:20:02;;;;;;;1.50;0.70;;;12.40;85.30;;;;;;6278536;22;20487;-73
2023/09/23 06:22:28;;;;;;;1.90;0.90;;;12.40;86.00;;;;;;6278446;22;20817;-73
2023/09/23 06:24:55;;;;;;;1.50;0.70;;;12.50;86.00;;;;;;6278453;22;20726;-73
2023/09/23 06:27:22;;;;;;;2.57;0.90;;;12.60;85.70;;;;;;6278377;22;20401;-73
2023/09/23 06:29:49;;;;;;;2.30;0.80;;;12.50;85.10;;;;;;6278233;22;20971;-73
2023/09/23 06:32:16;;;;;;;1.70;0.70;;;12.60;85.20;;;;;;6277848;22;20417;-74
2023/09/23 06:34:42;;;;;;;1.73;0.70;;;12.80;85.00;;;;;;6278316;22;20405;-75
2023/09/23 06:37:10;;;;;;;1.70;0.90;;;12.90;84.30;;;;;;6278375;22;20427;-75
2023/09/23 06:39:37;;;;;;;1.60;0.70;;;13.00;84.30;;;;;;6278157;22;20405;-75
2023/09/23 06:42:05;;;;;;;1.83;0.80;;;13.20;84.10;;;;;;6278475;22;20421;-75
2023/09/23 06:44:32;;;;;;;1.60;0.70;;;13.40;84.10;;;;;;6278205;22;20412;-75
2023/09/23 06:47:01;;;;;;;2.30;0.80;;;13.60;82.90;;;;;;6277822;22;20903;-75
2023/09/23 06:49:27;;;;;;;1.63;0.90;;;13.80;82.00;;;;;;6278251;22;20397;-75
2023/09/23 06:51:54;;;;;;;2.00;1.00;;;14.00;81.90;;;;;;6277990;22;20441;-75
2023/09/23 06:54:22;;;;;;;1.47;0.63;;;14.20;80.90;;;;;;6278099;22;20404;-74
2023/09/23 06:56:49;;;;;;;2.70;0.90;;;14.20;80.50;;;;;;6278095;22;20420;-74
2023/09/23 06:59:15;;;;;;;3.80;0.90;;;14.30;80.10;;;;;;6278098;22;20436;-74
2023/09/23 07:01:42;;;;;;;4.30;0.80;;;14.30;80.70;;;;;;6277435;22;20774;-74
2023/09/23 07:04:08;;;;;;;1.70;1.00;;;14.30;81.30;;;;;;6277590;22;20401;-74
2023/09/23 07:06:35;;;;;;;3.63;1.13;;;14.60;80.10;;;;;;6277619;22;20404;-75
2023/09/23 07:09:04;;;;;;;2.60;0.83;;;14.80;80.00;;;;;;6277983;22;20401;-75
2023/09/23 07:11:32;;;;;;;1.60;0.80;;;15.20;78.90;;;;;;6277807;22;20490;-74
2023/09/23 07:14:00;;;;;;;2.00;0.80;;;15.40;77.40;;;;;;6277954;22;20397;-74
2023/09/23 07:16:27;;;;;;;1.50;0.70;;;15.40;77.60;;;;;;6277592;22;20868;-74
2023/09/23 07:18:54;;;;;;;1.73;0.80;;;15.60;77.70;;;;;;6277539;22;20903;-74
2023/09/23 07:21:21;;;;;;;1.70;0.73;;;15.90;75.90;;;;;;6277758;22;20413;-74
2023/09/23 07:23:47;;;;;;;1.67;0.70;;;15.90;76.10;;;;;;6277844;22;20408;-74
2023/09/23 07:26:19;;;;;;;1.70;0.80;;;15.90;75.90;;;;;;6277902;22;20455;-74
2023/09/23 07:28:50;;;;;;;2.50;0.77;;;15.60;76.90;;;;;;6277532;22;20428;-74
2023/09/23 07:31:17;;;;;;;1.50;0.80;;;15.50;77.60;;;;;;6277751;22;20484;-74
2023/09/23 07:33:44;;;;;;;1.97;0.80;;;15.40;77.40;;;;;;6277790;22;20451;-74
2023/09/23 07:36:11;;;;;;;1.60;0.80;;;15.30;78.00;;;;;;6277406;22;20876;-74
2023/09/23 07:38:38;;;;;;;1.60;0.70;;;15.30;78.60;;;;;;6277621;22;20428;-74
2023/09/23 07:41:04;;;;;;;3.50;1.00;;;15.60;79.70;;;;;;6277566;22;20421;-74
2023/09/23 07:43:31;;;;;;;1.63;0.80;;;15.80;79.20;;;;;;6279068;22;20420;-74
2023/09/23 07:45:59;;;;;;;1.60;0.70;;;16.20;77.90;;;;;;6277654;22;20406;-74
2023/09/23 07:48:26;;;;;;;1.77;0.70;;;16.30;77.20;;;;;;6277614;22;20397;-74
2023/09/23 07:50:54;;;;;;;1.80;0.80;;;16.50;74.20;;;;;;6277437;22;20445;-73
2023/09/23 07:53:21;;;;;;;2.20;0.80;;;16.20;75.80;;;;;;6277625;22;20401;-74
2023/09/23 07:55:47;;;;;;;1.53;0.60;;;16.40;76.10;;;;;;6277208;22;20435;-74
2023/09/23 07:58:14;;;;;;;1.60;0.80;;;16.60;75.90;;;;;;6277173;22;20409;-74
2023/09/23 08:00:41;;;;;;;1.60;0.70;;;16.90;75.40;;;;;;6277320;22;20416;-74
2023/09/23 08:03:09;;;;;;;1.53;0.80;;;17.30;73.20;;;;;;6277562;22;20392;-75
2023/09/23 08:05:35;;;;;;;1.97;0.80;;;17.30;72.90;;;;;;6277453;22;20404;-74
2023/09/23 08:08:02;;;;;;;1.50;0.60;;;17.30;73.50;;;;;;6277457;22;20401;-75
2023/09/23 08:10:29;;;;;;;2.30;0.90;;;17.30;73.70;;;;;;6277253;22;20441;-68
2023/09/23 08:12:55;;;;;;;1.97;0.70;;;17.40;72.80;;;;;;6277403;22;20455;-69
2023/09/23 08:15:22;;;;;;;1.50;0.60;;;17.50;72.90;;;;;;6277375;22;20406;-69
2023/09/23 08:17:49;;;;;;;1.60;0.77;;;17.60;72.50;;;;;;6277412;22;20398;-70
2023/09/23 08:20:20;;;;;;;3.60;0.80;;;17.80;71.70;;;;;;6277310;22;20405;-69
2023/09/23 08:22:47;;;;;;;1.50;0.70;;;18.10;71.70;;;;;;6277246;22;20421;-74
2023/09/23 08:25:15;;;;;;;1.60;0.70;;;18.40;69.20;;;;;;6277202;22;20760;-72
2023/09/23 08:27:42;;;;;;;1.70;0.80;;;18.20;69.50;;;;;;6276874;22;20746;-70
2023/09/23 08:30:10;;;;;;;1.90;0.87;;;18.30;71.00;;;;;;6277220;22;20455;-70
2023/09/23 08:32:36;;;;;;;1.60;0.80;;;18.50;69.60;;;;;;6277126;22;20425;-70
2023/09/23 08:35:05;;;;;;;3.00;0.70;;;18.60;69.80;;;;;;6277146;22;20404;-71
2023/09/23 08:37:33;;;;;;;1.40;0.60;;;18.60;68.40;;;;;;6277205;22;20412;-73
2023/09/23 08:40:00;;;;;;;1.50;0.60;;;18.60;68.00;;;;;;6276882;22;20408;-72
2023/09/23 08:42:27;;;;;;;1.50;0.67;;;18.70;67.00;;;;;;6277010;22;20417;-72
2023/09/23 08:44:55;;;;;;;1.50;0.70;;;18.80;68.20;;;;;;6276704;22;20436;-71
2023/09/23 08:47:22;;;;;;;2.00;0.90;;;18.90;68.90;;;;;;6277018;22;20408;-71
2023/09/23 08:49:49;;;;;;;1.70;0.70;;;19.10;66.20;;;;;;6276652;22;20892;-70
2023/09/23 08:52:17;;;;;;;1.60;0.70;;;19.10;67.20;;;;;;6276861;22;20441;-70
2023/09/23 08:54:48;;;;;;;1.70;0.80;;;18.90;66.10;;;;;;6276700;22;20455;-69
2023/09/23 08:57:16;;;;;;;1.70;0.70;;;18.70;66.20;;;;;;6276964;22;20385;-70
2023/09/23 08:59:43;;;;;;;2.03;0.90;;;18.70;68.00;;;;;;6276959;22;20405;-70
2023/09/23 09:02:10;;;;;;;1.73;0.70;;;18.80;68.40;;;;;;6276455;22;20791;-70
2023/09/23 09:04:37;;;;;;;1.70;1.00;;;18.70;69.50;;;;;;6276818;22;20402;-70
2023/09/23 09:07:03;;;;;;;1.50;0.70;;;18.40;67.20;;;;;;6276506;22;20865;-70
2023/09/23 09:09:30;;;;;;;1.67;0.87;;;18.40;69.70;;;;;;6276887;22;20408;-70
2023/09/23 09:11:59;;;;;;;1.70;0.73;;;18.50;67.60;;;;;;6276637;22;20441;-70
2023/09/23 09:14:26;;;;;;;2.17;0.90;;;18.40;68.70;;;;;;6276751;22;20428;-70
2023/09/23 09:16:53;;;;;;;2.23;0.70;;;18.20;67.50;;;;;;6276756;22;20406;-69
2023/09/23 09:19:20;;;;;;;2.03;0.90;;;18.00;68.00;;;;;;6276889;22;20404;-70
2023/09/23 09:21:46;;;;;;;1.73;0.90;;;18.00;67.00;;;;;;6276758;22;20417;-70
2023/09/23 09:24:13;;;;;;;1.50;0.77;;;17.90;67.40;;;;;;6276626;22;20408;-70
2023/09/23 09:26:40;;;;;;;2.40;0.80;;;18.00;70.60;;;;;;6276277;22;20728;-70
2023/09/23 09:29:08;;;;;;;1.70;0.90;;;18.00;70.10;;;;;;6276674;22;20459;-70
2023/09/23 09:31:38;;;;;;;1.63;0.70;;;17.90;69.00;;;;;;6276529;22;20441;-70
2023/09/23 09:34:08;;;;;;;3.40;0.90;;;17.90;70.00;;;;;;6276709;22;20403;-70
2023/09/23 09:36:39;;;;;;;1.60;0.73;;;17.80;68.60;;;;;;6276249;22;20754;-70
2023/09/23 09:39:08;;;;;;;1.60;0.80;;;17.70;66.80;;;;;;6276283;22;20949;-69
2023/09/23 09:41:45;;;;;;;1.80;0.90;;;17.60;69.60;;;;;;6276527;22;20421;-70
2023/09/23 09:44:14;;;;;;;3.10;0.90;;;17.70;68.70;;;;;;6276685;22;20412;-70
2023/09/23 09:46:42;;;;;;;1.73;0.73;;;17.70;67.80;;;;;;6276162;22;20931;-71
2023/09/23 09:49:10;;;;;;;2.73;0.80;;;17.60;68.60;;;;;;6276219;22;20887;-70
2023/09/23 09:51:39;;;;;;;2.00;0.80;;;17.80;69.30;;;;;;6276221;22;20452;-72
2023/09/23 09:54:09;;;;;;;2.20;0.90;;;17.90;69.00;;;;;;6276626;22;20786;-70
2023/09/23 09:56:36;;;;;;;1.80;0.90;;;17.80;68.70;;;;;;6276867;22;20408;-70
2023/09/23 09:59:04;;;;;;;1.87;0.70;;;17.80;66.60;;;;;;6276219;22;20891;-70
2023/09/23 10:01:32;;;;;;;1.93;0.80;;;17.80;66.90;;;;;;6276222;22;20441;-71
2023/09/23 10:03:59;;;;;;;1.73;0.90;;;17.90;68.10;;;;;;6276134;22;20902;-70
2023/09/23 10:06:26;;;;;;;2.07;0.90;;;18.00;68.70;;;;;;6276657;22;20488;-70
2023/09/23 10:08:53;;;;;;;1.90;0.87;;;18.20;67.90;;;;;;6276591;22;20400;-71
2023/09/23 10:11:31;;;;;;;2.13;0.80;;;18.30;68.30;;;;;;6276386;22;20500;-71
2023/09/23 10:13:57;;;;;;;1.90;1.00;;;18.30;67.20;;;;;;6276467;22;20389;-70
2023/09/23 10:16:28;;;;;;;1.70;0.80;;;18.40;69.00;;;;;;6285184;22;20951;-74
2023/09/23 10:18:57;;;;;;;2.07;1.20;;;18.30;65.60;;;;;;6307441;22;20391;-73
2023/09/23 10:21:25;;;;;;;2.13;0.90;;;18.40;64.80;;;;;;6307335;22;20411;-74
2023/09/23 10:23:52;;;;;;;1.87;1.00;;;18.60;65.00;;;;;;6307979;22;20396;-74
2023/09/23 10:26:20;;;;;;;1.93;0.87;;;18.80;64.40;;;;;;6298558;22;20456;-74
2023/09/23 10:28:57;;;;;;;2.10;1.10;;;19.00;63.40;;;;;;6276457;22;20397;-73
2023/09/23 10:31:26;;;;;;;1.90;1.03;;;19.10;62.40;;;;;;6276344;22;20512;-74
2023/09/23 10:33:52;;;;;;;1.60;0.80;;;19.20;62.70;;;;;;6276451;22;20742;-73
2023/09/23 10:36:21;;;;;;;1.70;0.77;;;19.20;62.70;;;;;;6276296;22;20417;-73
2023/09/23 10:38:49;;;;;;;1.50;0.70;;;19.20;62.80;;;;;;6276358;22;20397;-74
2023/09/23 10:41:16;;;;;;;1.60;0.80;;;19.30;62.80;;;;;;6277329;22;20401;-73
2023/09/23 10:43:42;;;;;;;1.40;0.70;;;19.50;62.40;;;;;;6275991;22;20895;-73
2023/09/23 10:46:10;;;;;;;1.50;0.73;;;19.60;61.50;;;;;;6276271;22;20472;-73
2023/09/23 10:48:37;;;;;;;1.50;0.73;;;19.80;62.50;;;;;;6276316;22;20405;-73
2023/09/23 10:51:05;;;;;;;1.50;0.80;;;19.80;61.10;;;;;;6275835;22;20913;-74
2023/09/23 10:53:34;;;;;;;2.00;0.87;;;19.40;61.40;;;;;;6275936;22;20920;-74
2023/09/23 10:56:01;;;;;;;1.87;0.93;;;19.50;63.40;;;;;;6276480;22;20422;-74
2023/09/23 10:58:29;;;;;;;1.60;0.90;;;19.70;62.90;;;;;;6276258;22;20512;-74
2023/09/23 11:00:57;;;;;;;1.70;0.80;;;20.00;61.70;;;;;;6276275;22;20401;-73
2023/09/23 11:03:24;;;;;;;1.90;0.90;;;20.10;60.50;;;;;;6276278;22;20412;-73
2023/09/23 11:05:51;;;;;;;1.70;0.80;;;20.00;60.10;;;;;;6277968;22;20405;-73
2023/09/23 11:08:19;;;;;;;1.93;0.93;;;20.20;61.40;;;;;;6277632;22;20896;-73
2023/09/23 11:10:49;;;;;;;1.80;0.80;;;20.20;59.30;;;;;;6278069;22;20432;-74
2023/09/23 11:13:16;;;;;;;1.90;0.87;;;20.30;59.40;;;;;;6278261;22;20425;-74
2023/09/23 11:15:45;;;;;;;3.77;1.07;;;20.30;59.30;;;;;;6277859;22;20404;-74
2023/09/23 11:18:13;;;;;;;1.80;0.70;;;20.30;59.50;;;;;;6277480;22;20794;-74
2023/09/23 11:20:42;;;;;;;1.60;0.70;;;20.30;58.10;;;;;;6277924;22;20459;-74
2023/09/23 11:23:10;;;;;;;1.87;0.80;;;20.10;61.10;;;;;;6277903;22;20781;-73
2023/09/23 11:25:38;;;;;;;2.27;0.80;;;20.20;60.60;;;;;;6277871;22;20401;-73
2023/09/23 11:28:06;;;;;;;1.90;0.80;;;20.30;61.60;;;;;;6278534;22;20735;-73
2023/09/23 11:30:33;;;;;;;1.80;0.80;;;20.30;59.60;;;;;;6277451;22;20969;-74
2023/09/23 11:33:00;;;;;;;2.33;0.80;;;20.20;58.60;;;;;;6277771;22;20433;-74
2023/09/23 11:35:27;;;;;;;1.80;0.90;;;20.20;60.50;;;;;;6277400;22;20508;-73
2023/09/23 11:37:54;;;;;;;1.70;0.80;;;20.40;61.70;;;;;;6277758;22;20436;-73
2023/09/23 11:40:22;;;;;;;1.50;0.67;;;20.70;59.00;;;;;;6277951;22;20401;-74
2023/09/23 11:42:50;;;;;;;1.80;0.80;;;20.80;57.50;;;;;;6277856;22;20488;-74
2023/09/23 11:45:20;;;;;;;1.80;0.90;;;20.70;57.10;;;;;;6277869;22;20429;-74
2023/09/23 11:47:46;;;;;;;1.60;0.80;;;20.90;58.40;;;;;;6278094;22;20421;-74
2023/09/23 11:50:13;;;;;;;2.00;0.97;;;21.30;58.10;;;;;;6277722;22;20398;-74
2023/09/23 11:52:40;;;;;;;1.77;0.80;;;21.50;56.40;;;;;;6277550;22;20443;-74
2023/09/23 11:55:07;;;;;;;1.53;0.80;;;21.80;55.40;;;;;;6277579;22;20401;-74
2023/09/23 11:57:34;;;;;;;1.70;0.70;;;21.80;55.00;;;;;;6277733;22;20425;-73
2023/09/23 12:00:00;;;;;;;2.83;0.90;;;21.10;55.60;;;;;;6277604;22;20491;-74
2023/09/23 12:02:29;;;;;;;1.90;0.90;;;21.40;57.50;;;;;;6277219;22;20401;-74
2023/09/23 12:04:56;;;;;;;2.33;1.33;;;21.50;56.40;;;;;;6277437;22;20401;-74
2023/09/23 12:07:23;;;;;;;1.90;0.70;;;21.50;56.70;;;;;;6277424;22;20417;-74
2023/09/23 12:09:50;;;;;;;1.70;0.90;;;21.40;55.80;;;;;;6277450;22;20445;-74
2023/09/23 12:12:18;;;;;;;1.70;0.80;;;21.40;57.30;;;;;;6276964;22;20825;-74
2023/09/23 12:14:45;;;;;;;2.23;0.90;;;21.40;57.20;;;;;;6277284;22;20459;-74
2023/09/23 12:17:14;;;;;;;1.93;0.77;;;21.70;57.40;;;;;;6277111;22;20429;-74
2023/09/23 12:19:44;;;;;;;1.70;0.73;;;21.60;54.30;;;;;;6277375;22;20401;-74
2023/09/23 12:22:12;;;;;;;1.50;0.70;;;21.70;54.60;;;;;;6277612;22;20408;-74
2023/09/23 12:24:39;;;;;;;1.50;0.80;;;21.70;54.20;;;;;;6277303;22;20406;-74
2023/09/23 12:27:06;;;;;;;1.60;0.70;;;21.50;53.90;;;;;;6277529;22;20417;-74
2023/09/23 12:29:32;;;;;;;1.87;0.70;;;21.20;52.60;;;;;;6277248;22;20402;-75
2023/09/23 12:32:00;;;;;;;1.80;0.70;;;20.70;54.40;;;;;;6277125;22;20437;-75
2023/09/23 12:34:26;;;;;;;1.80;0.77;;;20.50;55.60;;;;;;6277174;22;20405;-74
2023/09/23 12:36:54;;;;;;;1.87;0.80;;;20.30;55.70;;;;;;6277175;22;20439;-75
2023/09/23 12:39:22;;;;;;;1.40;0.60;;;20.10;56.20;;;;;;6277188;22;20457;-75
2023/09/23 12:41:49;;;;;;;1.60;0.80;;;20.10;58.10;;;;;;6277372;22;20402;-76
2023/09/23 12:44:15;;;;;;;1.70;0.80;;;20.00;56.60;;;;;;6277498;22;20401;-75
2023/09/23 12:46:42;;;;;;;2.40;0.93;;;19.90;57.30;;;;;;6277112;22;20425;-75
2023/09/23 12:49:09;;;;;;;2.03;0.87;;;19.90;57.80;;;;;;6277227;22;20500;-75
2023/09/23 12:51:38;;;;;;;1.63;0.80;;;19.90;57.90;;;;;;6277131;22;20397;-75
2023/09/23 12:54:07;;;;;;;1.80;0.80;;;19.90;58.30;;;;;;6277037;22;20408;-75
2023/09/23 12:56:33;;;;;;;1.60;0.63;;;19.90;58.60;;;;;;6276543;22;20754;-75
2023/09/23 12:59:00;;;;;;;1.70;0.80;;;20.00;56.90;;;;;;6276996;22;20394;-75
2023/09/23 13:01:27;;;;;;;1.40;0.70;;;20.30;59.00;;;;;;6277061;22;20393;-75
2023/09/23 13:03:55;;;;;;;1.50;0.70;;;20.80;56.60;;;;;;6276973;22;20400;-75
2023/09/23 13:06:21;;;;;;;1.80;0.70;;;21.20;55.40;;;;;;6276811;22;20417;-75
2023/09/23 13:08:48;;;;;;;2.60;0.90;;;21.30;55.30;;;;;;6276844;22;20397;-75
2023/09/23 13:11:16;;;;;;;1.50;0.80;;;21.30;54.80;;;;;;6277762;22;20393;-77
2023/09/23 13:13:43;;;;;;;1.40;0.60;;;21.20;54.00;;;;;;6277442;22;20451;-77
2023/09/23 13:16:09;;;;;;;1.80;0.90;;;21.10;54.70;;;;;;6277245;22;20495;-78
2023/09/23 13:18:36;;;;;;;2.33;0.80;;;21.20;56.40;;;;;;6277576;22;20382;-76
2023/09/23 13:21:03;;;;;;;2.00;1.10;;;21.50;56.80;;;;;;6276903;22;20401;-76
2023/09/23 13:23:30;;;;;;;1.47;0.70;;;21.90;55.00;;;;;;6276880;22;20707;-76
2023/09/23 13:25:57;;;;;;;1.50;0.70;;;22.40;53.30;;;;;;6276592;22;20408;-75
2023/09/23 13:28:25;;;;;;;1.60;0.77;;;22.90;51.70;;;;;;6276566;22;20443;-75
2023/09/23 13:30:52;;;;;;;1.73;0.80;;;23.10;51.10;;;;;;6276669;22;20968;-75
2023/09/23 13:33:22;;;;;;;1.70;0.77;;;23.10;50.20;;;;;;6276213;22;20755;-75
2023/09/23 13:35:48;;;;;;;2.20;0.87;;;23.00;51.80;;;;;;6276690;22;20508;-74
2023/09/23 13:38:15;;;;;;;1.50;0.80;;;22.90;51.10;;;;;;6276790;22;20407;-75
2023/09/23 13:40:42;;;;;;;1.70;0.80;;;22.60;51.30;;;;;;6276679;22;20405;-75
2023/09/23 13:43:08;;;;;;;1.50;0.70;;;22.70;52.20;;;;;;6276209;22;20915;-75
2023/09/23 13:45:37;;;;;;;1.93;1.03;;;22.90;51.60;;;;;;6276613;22;20404;-75
2023/09/23 13:48:05;;;;;;;1.60;0.90;;;23.30;50.50;;;;;;6276646;22;20397;-75
2023/09/23 13:50:32;;;;;;;1.43;0.70;;;23.60;50.70;;;;;;6276601;22;20436;-75
2023/09/23 13:52:59;;;;;;;2.13;0.83;;;24.20;49.30;;;;;;6276484;22;20444;-76
2023/09/23 13:55:25;;;;;;;1.50;0.70;;;24.80;48.00;;;;;;6276467;22;20402;-75
2023/09/23 13:57:52;;;;;;;2.43;0.80;;;25.00;48.20;;;;;;6276451;22;20433;-75
2023/09/23 14:00:19;;;;;;;1.60;0.80;;;25.50;47.60;;;;;;6276530;22;20405;-75
2023/09/23 14:02:47;;;;;;;1.70;0.80;;;26.40;45.00;;;;;;6276549;22;20397;-76
2023/09/23 14:05:13;;;;;;;2.37;0.90;;;27.50;42.40;;;;;;6276527;22;20404;-76
2023/09/23 14:07:40;;;;;;;1.70;0.80;;;28.40;40.90;;;;;;6276417;22;20428;-76
2023/09/23 14:10:08;;;;;;;1.40;0.80;;;29.60;40.70;;;;;;6276507;22;20397;-76
2023/09/23 14:12:34;;;;;;;2.10;1.57;;;30.50;38.80;;;;;;6276412;22;20440;-76
2023/09/23 14:15:01;;;;;;;1.60;0.80;;;29.90;38.70;;;;;;6276042;22;20401;-75
2023/09/23 14:17:28;;;;;;;1.40;0.70;;;29.90;40.00;;;;;;6275987;22;20440;-76
2023/09/23 14:19:56;;;;;;;1.60;0.90;;;30.80;38.40;;;;;;6276464;22;20405;-76
2023/09/23 14:22:23;;;;;;;1.40;0.70;;;32.40;36.20;;;;;;6276444;22;20393;-76
2023/09/23 14:24:50;;;;;;;1.70;0.93;;;33.50;34.40;;;;;;6276396;22;20420;-76
2023/09/23 14:27:17;;;;;;;1.90;0.90;;;33.70;34.00;;;;;;6276378;22;20424;-76
2023/09/23 14:29:44;;;;;;;1.40;0.70;;;33.30;34.10;;;;;;6276459;22;20451;-76
2023/09/23 14:32:11;;;;;;;1.40;0.67;;;33.10;34.70;;;;;;6276328;22;20409;-76
2023/09/23 14:34:37;;;;;;;1.80;0.80;;;33.60;34.90;;;;;;6276375;22;20455;-76
2023/09/23 14:37:05;;;;;;;1.30;0.60;;;34.10;33.10;;;;;;6276270;22;20417;-76
2023/09/23 14:39:33;;;;;;;2.13;0.90;;;33.40;34.20;;;;;;6278117;22;20398;-76
2023/09/23 14:42:00;;;;;;;1.73;0.80;;;32.10;35.10;;;;;;6278297;22;20470;-75
2023/09/23 14:44:26;;;;;;;1.70;0.70;;;30.50;37.30;;;;;;6278284;22;20397;-76
2023/09/23 14:46:53;;;;;;;1.93;0.80;;;29.10;38.80;;;;;;6278680;22;20417;-75
2023/09/23 14:49:20;;;;;;;1.50;0.70;;;27.90;40.80;;;;;;6277861;22;20786;-75
2023/09/23 14:51:47;;;;;;;1.70;0.77;;;26.80;42.90;;;;;;6278254;22;20695;-75
2023/09/23 14:54:15;;;;;;;1.60;0.90;;;25.90;44.60;;;;;;6278181;22;20444;-75
2023/09/23 14:56:42;;;;;;;1.90;0.93;;;25.10;46.10;;;;;;6277798;22;20421;-75
2023/09/23 14:59:09;;;;;;;1.63;0.80;;;24.20;47.20;;;;;;6277800;22;20412;-75
2023/09/23 15:01:38;;;;;;;1.40;0.70;;;23.40;49.00;;;;;;6278091;22;20413;-75
2023/09/23 15:04:05;;;;;;;1.80;1.10;;;22.80;50.10;;;;;;6278186;22;20401;-75
2023/09/23 15:06:32;;;;;;;1.93;0.70;;;22.40;51.20;;;;;;6278001;22;20428;-74
2023/09/23 15:08:59;;;;;;;1.80;0.97;;;22.00;51.50;;;;;;6278076;22;20404;-74
2023/09/23 15:11:27;;;;;;;2.00;0.80;;;21.70;53.20;;;;;;6278045;22;20397;-75
2023/09/23 15:13:55;;;;;;;1.60;0.80;;;21.50;54.10;;;;;;6277997;22;20433;-75
2023/09/23 15:16:22;;;;;;;2.10;1.00;;;21.60;53.50;;;;;;6277756;22;20440;-75
2023/09/23 15:18:49;;;;;;;1.80;1.20;;;21.60;54.60;;;;;;6277679;22;20833;-74
2023/09/23 15:21:15;;;;;;;1.77;1.00;;;21.90;54.40;;;;;;6277979;22;20471;-75
2023/09/23 15:23:42;;;;;;;1.80;0.80;;;21.90;54.10;;;;;;6277915;22;20400;-75
2023/09/23 15:26:09;;;;;;;1.50;0.80;;;21.80;54.30;;;;;;6277760;22;20433;-75
2023/09/23 15:28:39;;;;;;;1.73;0.90;;;21.90;53.50;;;;;;6278418;22;20488;-75
2023/09/23 15:31:07;;;;;;;1.80;1.00;;;22.00;53.90;;;;;;6277940;22;20390;-75
2023/09/23 15:33:35;;;;;;;1.60;0.70;;;22.00;53.70;;;;;;6277744;22;20445;-74
2023/09/23 15:36:01;;;;;;;1.60;0.70;;;21.90;53.40;;;;;;6277734;22;20550;-75
2023/09/23 15:38:28;;;;;;;1.60;0.80;;;21.80;53.70;;;;;;6277824;22;20405;-75
2023/09/23 15:40:55;;;;;;;1.60;0.90;;;21.70;53.60;;;;;;6278827;22;20398;-75
2023/09/23 15:43:21;;;;;;;1.70;0.80;;;21.60;53.90;;;;;;6278354;22;20394;-75
2023/09/23 15:45:49;;;;;;;2.40;1.00;;;21.50;54.70;;;;;;6277648;22;20488;-76
2023/09/23 15:48:16;;;;;;;2.33;1.03;;;21.50;54.90;;;;;;6277843;22;20404;-74
2023/09/23 15:50:43;;;;;;;1.70;0.90;;;21.40;55.30;;;;;;6276937;22;20900;-75
2023/09/23 15:53:09;;;;;;;1.50;0.70;;;21.30;55.30;;;;;;6277174;22;20767;-75
2023/09/23 15:55:36;;;;;;;4.07;1.00;;;21.20;56.20;;;;;;6277899;22;20458;-75
2023/09/23 15:58:04;;;;;;;1.50;0.70;;;21.20;57.30;;;;;;6277614;22;20402;-75
2023/09/23 16:00:30;;;;;;;1.60;0.80;;;21.10;56.70;;;;;;6277538;22;20484;-76
2023/09/23 16:02:58;;;;;;;1.60;0.90;;;21.00;57.50;;;;;;6277572;22;20397;-75
2023/09/23 16:05:25;;;;;;;1.93;0.93;;;21.00;58.00;;;;;;6277446;22;20402;-75
2023/09/23 16:07:52;;;;;;;1.60;0.83;;;21.00;57.20;;;;;;6277069;22;20417;-75
2023/09/23 16:10:19;;;;;;;1.60;0.80;;;20.90;56.70;;;;;;6277444;22;20401;-74
2023/09/23 16:12:46;;;;;;;1.97;0.80;;;20.80;57.50;;;;;;6277407;22;20437;-75
2023/09/23 16:15:12;;;;;;;1.70;0.90;;;20.60;55.50;;;;;;6277441;22;20397;-75
2023/09/23 16:17:39;;;;;;;1.57;0.70;;;20.40;55.70;;;;;;6294035;22;20467;-74
2023/09/23 16:20:09;;;;;;;1.60;0.80;;;20.20;55.60;;;;;;6308276;22;20392;-74
2023/09/23 16:22:35;;;;;;;1.90;0.80;;;20.20;56.30;;;;;;6308304;22;20471;-74
2023/09/23 16:25:02;;;;;;;1.73;0.80;;;20.10;56.80;;;;;;6308247;22;20491;-74
2023/09/23 16:27:29;;;;;;;1.70;0.80;;;19.80;57.30;;;;;;6289740;22;20417;-74
2023/09/23 16:29:56;;;;;;;1.77;0.90;;;19.70;58.30;;;;;;6277289;22;20425;-74
2023/09/23 16:32:22;;;;;;;1.60;0.80;;;19.60;58.60;;;;;;6277493;22;20401;-74
2023/09/23 16:34:49;;;;;;;1.80;0.90;;;19.50;59.40;;;;;;6277075;22;20441;-74
2023/09/23 16:37:18;;;;;;;1.60;0.80;;;19.50;59.60;;;;;;6277242;22;20417;-74
2023/09/23 16:39:45;;;;;;;1.77;0.77;;;19.50;59.30;;;;;;6277323;22;20455;-74
2023/09/23 16:42:11;;;;;;;1.60;0.80;;;19.60;59.30;;;;;;6277257;22;20404;-74
2023/09/23 16:44:39;;;;;;;1.70;0.80;;;19.50;59.60;;;;;;6277434;22;20402;-74
2023/09/23 16:47:07;;;;;;;1.80;0.80;;;19.40;59.90;;;;;;6277113;22;20457;-74
2023/09/23 16:49:33;;;;;;;1.60;0.80;;;19.40;60.30;;;;;;6277134;22;20405;-74